Time;durP1;ratioP1;P1;durP2;ratioP2;P2;SDS_P1;SDS_P2;PMS_P1;PMS_P2;Temp;Humidity;BMP_temperature;BMP_pressure;BME280_temperature;BME280_humidity;BME280_pressure;Samples;Min_cycle;Max_cycle;Signal;HPM_P1;HPM_P2
2020/12/17 00:01:34;;;;;;;;;;;26.70;42.70;;;;;;5035224;28;19909;-60
2020/12/17 00:04:00;;;;;;;;;;;26.70;42.60;;;;;;5035085;28;19963;-60
2020/12/17 00:06:25;;;;;;;;;;;26.70;42.70;;;;;;5035301;28;19913;-60
2020/12/17 00:08:51;;;;;;;;;;;26.60;42.70;;;;;;5034949;28;20439;-61
2020/12/17 00:11:16;;;;;;;;;;;26.70;42.70;;;;;;5034922;28;20064;-61
2020/12/17 00:13:42;;;;;;;;;;;26.60;42.70;;;;;;5035001;28;19921;-60
2020/12/17 00:16:07;;;;;;;;;;;26.70;42.80;;;;;;5034914;28;19915;-60
2020/12/17 00:18:33;;;;;;;;;;;26.70;42.70;;;;;;5035075;28;19925;-60
2020/12/17 00:20:58;;;;;;;;;;;26.70;42.70;;;;;;5034694;28;20318;-60
2020/12/17 00:23:24;;;;;;;;;;;26.70;42.60;;;;;;5034425;28;19914;-60
2020/12/17 00:25:49;;;;;;;;;;;26.70;42.60;;;;;;5034984;28;20405;-60
2020/12/17 00:28:15;;;;;;;;;;;26.70;42.40;;;;;;5034926;28;19909;-60
2020/12/17 00:30:40;;;;;;;;;;;26.70;43.10;;;;;;5034952;28;20371;-60
2020/12/17 00:33:06;;;;;;;;;;;26.70;42.50;;;;;;5034439;28;19913;-60
2020/12/17 00:35:31;;;;;;;;;;;26.70;42.60;;;;;;5017138;28;19909;-60
2020/12/17 00:37:57;;;;;;;;;;;26.60;42.60;;;;;;5016913;28;20360;-60
2020/12/17 00:40:22;;;;;;;;;;;26.60;42.70;;;;;;5034110;28;19924;-60
2020/12/17 00:42:48;;;;;;;;;;;26.60;42.70;;;;;;5034198;28;20433;-60
2020/12/17 00:45:13;;;;;;;;;;;26.60;42.60;;;;;;5034809;28;20343;-61
2020/12/17 00:47:39;;;;;;;;;;;26.70;42.60;;;;;;5034143;28;20329;-60
2020/12/17 00:50:05;;;;;;;;;;;26.70;42.60;;;;;;5034489;28;19963;-60
2020/12/17 00:52:31;;;;;;;;;;;26.70;42.60;;;;;;5034376;28;19956;-60
2020/12/17 00:54:56;;;;;;;;;;;26.60;42.50;;;;;;5033505;28;19913;-60
2020/12/17 00:57:25;;;;;;;;;;;26.60;42.70;;;;;;5033973;28;19963;-60
2020/12/17 00:59:51;;;;;;;;;;;26.60;42.70;;;;;;5034186;28;20401;-60
2020/12/17 01:02:16;;;;;;;;;;;26.60;42.50;;;;;;5034405;28;19999;-60
2020/12/17 01:04:41;;;;;;;;;;;26.60;42.60;;;;;;5033861;28;20069;-60
2020/12/17 01:07:07;;;;;;;;;;;26.60;42.60;;;;;;5033584;28;19917;-60
2020/12/17 01:09:32;;;;;;;;;;;26.70;42.60;;;;;;5033740;28;19913;-60
2020/12/17 01:11:58;;;;;;;;;;;26.70;42.60;;;;;;5033704;28;19925;-60
2020/12/17 01:14:23;;;;;;;;;;;26.60;42.60;;;;;;5033543;28;20342;-60
2020/12/17 01:16:49;;;;;;;;;;;26.70;42.50;;;;;;5034133;28;19913;-60
2020/12/17 01:19:14;;;;;;;;;;;26.70;42.60;;;;;;5033782;28;20416;-62
2020/12/17 01:21:40;;;;;;;;;;;26.70;42.50;;;;;;5033811;28;19955;-63
2020/12/17 01:24:05;;;;;;;;;;;26.60;42.60;;;;;;5033756;28;20291;-60
2020/12/17 01:26:31;;;;;;;;;;;26.70;42.60;;;;;;5033192;28;20290;-62
2020/12/17 01:28:56;;;;;;;;;;;26.70;42.40;;;;;;5033327;28;19913;-62
2020/12/17 01:31:22;;;;;;;;;;;26.70;42.40;;;;;;5033831;28;19910;-62
2020/12/17 01:33:47;;;;;;;;;;;26.70;42.50;;;;;;5033153;28;20228;-60
2020/12/17 01:36:13;;;;;;;;;;;26.60;42.50;;;;;;5033776;28;19909;-62
2020/12/17 01:38:38;;;;;;;;;;;26.70;42.40;;;;;;5032906;28;20397;-62
2020/12/17 01:41:08;;;;;;;;;;;26.70;42.30;;;;;;5033407;28;19971;-62
2020/12/17 01:43:37;;;;;;;;;;;26.70;42.40;;;;;;5033431;28;19913;-62
2020/12/17 01:46:03;;;;;;;;;;;26.60;42.50;;;;;;5033069;28;19935;-62
2020/12/17 01:48:28;;;;;;;;;;;26.70;42.50;;;;;;5033049;28;20382;-62
2020/12/17 01:50:54;;;;;;;;;;;26.60;42.50;;;;;;5033305;28;19917;-60
2020/12/17 01:53:19;;;;;;;;;;;26.70;42.50;;;;;;5031813;28;19932;-59
2020/12/17 01:55:45;;;;;;;;;;;26.60;42.50;;;;;;5033151;28;20078;-60
2020/12/17 01:58:10;;;;;;;;;;;26.60;42.50;;;;;;5032558;28;19925;-60
2020/12/17 02:00:36;;;;;;;;;;;26.60;42.50;;;;;;5031852;28;20003;-60
2020/12/17 02:03:02;;;;;;;;;;;26.60;42.50;;;;;;5032892;28;20004;-60
2020/12/17 02:05:28;;;;;;;;;;;26.50;42.50;;;;;;5032051;28;19919;-60
2020/12/17 02:07:54;;;;;;;;;;;26.60;42.50;;;;;;5032783;28;19913;-60
2020/12/17 02:10:19;;;;;;;;;;;26.60;42.50;;;;;;5033202;28;19918;-60
2020/12/17 02:12:45;;;;;;;;;;;26.60;42.50;;;;;;5032189;28;19964;-60
2020/12/17 02:15:11;;;;;;;;;;;26.50;42.60;;;;;;5032595;28;19914;-60
2020/12/17 02:17:36;;;;;;;;;;;26.50;42.60;;;;;;5032677;28;19924;-60
2020/12/17 02:20:03;;;;;;;;;;;26.60;42.50;;;;;;5032852;28;20036;-60
2020/12/17 02:22:29;;;;;;;;;;;26.60;42.40;;;;;;5032652;28;19916;-60
2020/12/17 02:24:54;;;;;;;;;;;26.60;42.50;;;;;;5032409;28;20287;-60
2020/12/17 02:27:20;;;;;;;;;;;26.60;42.50;;;;;;5028305;28;19913;-60
2020/12/17 02:29:45;;;;;;;;;;;26.60;42.50;;;;;;5032674;28;19917;-60
2020/12/17 02:32:11;;;;;;;;;;;26.50;42.50;;;;;;5032645;28;20007;-60
2020/12/17 02:34:37;;;;;;;;;;;26.60;42.50;;;;;;5032384;28;19916;-60
2020/12/17 02:37:03;;;;;;;;;;;26.60;42.40;;;;;;5032623;28;20004;-60
2020/12/17 02:39:28;;;;;;;;;;;26.60;42.40;;;;;;5032095;28;19988;-60
2020/12/17 02:41:54;;;;;;;;;;;26.60;42.40;;;;;;5032847;28;19913;-60
2020/12/17 02:44:19;;;;;;;;;;;26.70;42.30;;;;;;5032278;28;19913;-60
2020/12/17 02:46:44;;;;;;;;;;;26.70;42.30;;;;;;5032706;28;19916;-60
2020/12/17 02:49:10;;;;;;;;;;;26.60;42.40;;;;;;5032156;28;20371;-61
2020/12/17 02:51:38;;;;;;;;;;;26.60;42.40;;;;;;5032450;28;19993;-60
2020/12/17 02:54:03;;;;;;;;;;;26.60;42.40;;;;;;5032398;28;19912;-60
2020/12/17 02:56:29;;;;;;;;;;;26.60;42.40;;;;;;5032465;28;20417;-60
2020/12/17 02:58:54;;;;;;;;;;;26.60;42.40;;;;;;5032352;28;19924;-60
2020/12/17 03:01:20;;;;;;;;;;;26.60;42.40;;;;;;5032785;28;19979;-60
2020/12/17 03:03:45;;;;;;;;;;;26.60;42.40;;;;;;5031942;28;20291;-61
2020/12/17 03:06:11;;;;;;;;;;;26.60;42.30;;;;;;5032414;28;20000;-60
2020/12/17 03:08:37;;;;;;;;;;;26.60;42.30;;;;;;5032052;28;19998;-60
2020/12/17 03:11:02;;;;;;;;;;;26.70;42.20;;;;;;5032581;28;19921;-61
2020/12/17 03:13:27;;;;;;;;;;;26.60;42.30;;;;;;5031913;28;20330;-60
2020/12/17 03:15:53;;;;;;;;;;;26.60;42.30;;;;;;5032308;28;19913;-60
2020/12/17 03:18:19;;;;;;;;;;;26.60;42.40;;;;;;5034924;28;19925;-60
2020/12/17 03:20:44;;;;;;;;;;;26.50;42.40;;;;;;5036390;28;20283;-61
2020/12/17 03:23:09;;;;;;;;;;;26.60;42.40;;;;;;5035812;28;19935;-60
2020/12/17 03:25:35;;;;;;;;;;;26.60;42.40;;;;;;5036189;28;19910;-60
2020/12/17 03:28:00;;;;;;;;;;;26.60;42.40;;;;;;5035275;28;20421;-60
2020/12/17 03:30:26;;;;;;;;;;;26.50;42.50;;;;;;5036027;28;19913;-60
2020/12/17 03:32:51;;;;;;;;;;;26.50;42.40;;;;;;5035658;28;20359;-60
2020/12/17 03:35:17;;;;;;;;;;;26.60;42.40;;;;;;5035230;28;20004;-60
2020/12/17 03:37:42;;;;;;;;;;;26.60;42.40;;;;;;5035653;28;19924;-60
2020/12/17 03:40:08;;;;;;;;;;;26.50;42.40;;;;;;5035989;28;20325;-60
2020/12/17 03:42:33;;;;;;;;;;;26.60;42.40;;;;;;5035610;28;19946;-60
2020/12/17 03:44:59;;;;;;;;;;;26.50;42.40;;;;;;5035161;28;19935;-60
2020/12/17 03:47:24;;;;;;;;;;;26.50;42.50;;;;;;5035142;28;19913;-60
2020/12/17 03:49:49;;;;;;;;;;;26.50;42.50;;;;;;5035551;28;19921;-62
2020/12/17 03:52:15;;;;;;;;;;;26.50;42.50;;;;;;5035719;28;19953;-62
2020/12/17 03:54:40;;;;;;;;;;;26.50;42.40;;;;;;5034929;28;20275;-62
2020/12/17 03:57:06;;;;;;;;;;;26.50;42.30;;;;;;5035102;28;19924;-62
2020/12/17 03:59:31;;;;;;;;;;;26.50;42.40;;;;;;5035390;28;19921;-62
2020/12/17 04:01:57;;;;;;;;;;;26.50;42.40;;;;;;5035115;28;20426;-62
2020/12/17 04:04:22;;;;;;;;;;;26.60;42.30;;;;;;5034448;28;19917;-62
2020/12/17 04:06:48;;;;;;;;;;;26.60;42.30;;;;;;5035493;28;20003;-62
2020/12/17 04:09:13;;;;;;;;;;;26.60;42.20;;;;;;5035238;28;19913;-61
2020/12/17 04:11:39;;;;;;;;;;;26.50;42.30;;;;;;5034872;28;19921;-62
2020/12/17 04:14:04;;;;;;;;;;;26.50;42.30;;;;;;5034910;28;19913;-60
2020/12/17 04:16:30;;;;;;;;;;;26.50;42.50;;;;;;5034885;28;20353;-62
2020/12/17 04:18:55;;;;;;;;;;;26.50;42.30;;;;;;5034826;28;19921;-62
2020/12/17 04:21:21;;;;;;;;;;;26.50;42.20;;;;;;5035181;28;19909;-62
2020/12/17 04:23:46;;;;;;;;;;;26.60;42.20;;;;;;5034875;28;19959;-61
2020/12/17 04:26:15;;;;;;;;;;;26.60;42.10;;;;;;5029241;28;20379;-60
2020/12/17 04:28:40;;;;;;;;;;;26.60;42.30;;;;;;5034031;28;19917;-60
2020/12/17 04:31:06;;;;;;;;;;;26.60;42.20;;;;;;5034536;28;20260;-60
2020/12/17 04:33:32;;;;;;;;;;;26.60;42.20;;;;;;5034067;28;19913;-62
2020/12/17 04:35:57;;;;;;;;;;;26.60;42.70;;;;;;5015103;28;19914;-60
2020/12/17 04:38:23;;;;;;;;;;;26.70;42.10;;;;;;5020908;28;20008;-60
2020/12/17 04:40:48;;;;;;;;;;;26.60;42.10;;;;;;5034522;28;20366;-62
2020/12/17 04:43:14;;;;;;;;;;;26.60;42.20;;;;;;5034337;28;19913;-62
2020/12/17 04:45:39;;;;;;;;;;;26.60;42.10;;;;;;5034393;28;20356;-62
2020/12/17 04:48:05;;;;;;;;;;;26.60;42.10;;;;;;5034155;28;19963;-62
2020/12/17 04:50:30;;;;;;;;;;;26.70;42.10;;;;;;5034392;28;20326;-62
2020/12/17 04:52:56;;;;;;;;;;;26.60;42.00;;;;;;5034341;28;19909;-61
2020/12/17 04:55:22;;;;;;;;;;;26.70;42.10;;;;;;5033304;28;20290;-60
2020/12/17 04:57:48;;;;;;;;;;;26.70;42.00;;;;;;5033271;28;19925;-60
2020/12/17 05:00:14;;;;;;;;;;;26.70;42.00;;;;;;5066010;28;20007;-60
2020/12/17 05:02:41;;;;;;;;;;;26.70;41.90;;;;;;5033946;28;19944;-60
2020/12/17 05:05:06;;;;;;;;;;;26.70;41.90;;;;;;5065447;28;20446;-59
2020/12/17 05:07:36;;;;;;;;;;;26.70;42.00;;;;;;5034420;28;20020;-62
2020/12/17 05:10:02;;;;;;;;;;;26.70;42.00;;;;;;5033797;28;20316;-59
2020/12/17 05:12:27;;;;;;;;;;;26.70;41.90;;;;;;5033591;28;19921;-62
2020/12/17 05:14:54;;;;;;;;;;;26.70;42.00;;;;;;5033810;28;19914;-60
2020/12/17 05:17:20;;;;;;;;;;;26.70;42.10;;;;;;5034084;28;19917;-60
2020/12/17 05:19:46;;;;;;;;;;;26.60;42.20;;;;;;5034129;28;20386;-60
2020/12/17 05:22:14;;;;;;;;;;;26.60;42.00;;;;;;5065574;28;19909;-60
2020/12/17 05:24:42;;;;;;;;;;;26.70;42.10;;;;;;5033565;28;19921;-60
2020/12/17 05:27:07;;;;;;;;;;;26.70;42.10;;;;;;5019855;28;19910;-60
2020/12/17 05:29:33;;;;;;;;;;;26.60;42.00;;;;;;5027980;28;19924;-60
2020/12/17 05:31:58;;;;;;;;;;;26.60;42.00;;;;;;5033939;28;19936;-60
2020/12/17 05:34:24;;;;;;;;;;;26.60;42.10;;;;;;5032941;28;19913;-60
2020/12/17 05:36:49;;;;;;;;;;;26.60;42.00;;;;;;5033409;28;20401;-60
2020/12/17 05:39:19;;;;;;;;;;;26.70;42.00;;;;;;5031897;28;19969;-60
2020/12/17 05:41:45;;;;;;;;;;;26.70;41.90;;;;;;5013003;28;19996;-61
2020/12/17 05:44:12;;;;;;;;;;;26.70;42.60;;;;;;5014026;28;19955;-60
2020/12/17 05:46:38;;;;;;;;;;;26.70;42.00;;;;;;5015557;28;19948;-60
2020/12/17 05:49:13;;;;;;;;;;;26.60;42.00;;;;;;5033516;28;19932;-60
2020/12/17 05:51:39;;;;;;;;;;;26.60;42.10;;;;;;5032969;28;19917;-62
2020/12/17 05:54:07;;;;;;;;;;;26.60;42.00;;;;;;5033219;28;19916;-60
2020/12/17 05:56:33;;;;;;;;;;;26.60;42.10;;;;;;5033109;28;20335;-61
2020/12/17 05:59:01;;;;;;;;;;;26.60;42.10;;;;;;5032797;28;19927;-60
2020/12/17 06:01:27;;;;;;;;;;;26.60;42.10;;;;;;5033072;28;20278;-61
2020/12/17 06:03:52;;;;;;;;;;;26.60;42.10;;;;;;5032659;28;19948;-60
2020/12/17 06:06:18;;;;;;;;;;;26.60;42.10;;;;;;5013228;28;19913;-60
2020/12/17 06:08:43;;;;;;;;;;;26.70;42.00;;;;;;5019595;28;19948;-60
2020/12/17 06:11:09;;;;;;;;;;;26.70;42.00;;;;;;5033036;28;19913;-61
2020/12/17 06:13:38;;;;;;;;;;;26.60;42.00;;;;;;5032395;28;20019;-60
2020/12/17 06:16:04;;;;;;;;;;;26.60;42.10;;;;;;5033093;28;19913;-61
2020/12/17 06:18:32;;;;;;;;;;;26.60;42.10;;;;;;5032141;28;19999;-62
2020/12/17 06:20:57;;;;;;;;;;;26.50;42.00;;;;;;5031524;28;19914;-62
2020/12/17 06:23:22;;;;;;;;;;;26.60;42.10;;;;;;5032747;28;20046;-62
2020/12/17 06:25:48;;;;;;;;;;;26.50;42.10;;;;;;5032958;28;19916;-62
2020/12/17 06:28:27;;;;;;;;;;;26.60;42.00;;;;;;5031622;28;20401;-62
2020/12/17 06:30:54;;;;;;;;;;;26.60;42.00;;;;;;5062976;28;20291;-62
2020/12/17 06:33:20;;;;;;;;;;;26.70;41.90;;;;;;5031258;28;19924;-62
2020/12/17 06:35:52;;;;;;;;;;;26.70;41.90;;;;;;5032610;28;19913;-62
2020/12/17 06:38:20;;;;;;;;;;;26.60;42.00;;;;;;5031278;28;19932;-62
2020/12/17 06:40:45;;;;;;;;;;;26.70;41.90;;;;;;5032678;28;19913;-60
2020/12/17 06:43:12;;;;;;;;;;;26.60;41.90;;;;;;5032377;28;19910;-60
2020/12/17 06:45:37;;;;;;;;;;;26.60;42.00;;;;;;5032752;28;19909;-60
2020/12/17 06:48:21;;;;;;;;;;;26.70;42.00;;;;;;5032477;28;19967;-60
2020/12/17 06:50:47;;;;;;;;;;;26.70;42.00;;;;;;5032198;28;20326;-60
2020/12/17 06:53:14;;;;;;;;;;;26.60;41.90;;;;;;5035743;28;19909;-61
2020/12/17 06:55:46;;;;;;;;;;;26.70;41.90;;;;;;5036207;28;19921;-60
2020/12/17 06:58:21;;;;;;;;;;;26.70;41.70;;;;;;5036302;28;19921;-60
2020/12/17 07:00:47;;;;;;;;;;;26.70;41.80;;;;;;5036363;28;20275;-60
2020/12/17 07:03:31;;;;;;;;;;;26.70;41.80;;;;;;5036335;28;20011;-60
2020/12/17 07:06:16;;;;;;;;;;;26.70;41.90;;;;;;5036222;28;19913;-60
2020/12/17 07:08:42;;;;;;;;;;;26.70;41.80;;;;;;5036001;28;20006;-60
2020/12/17 07:11:25;;;;;;;;;;;26.60;42.00;;;;;;5036371;28;19909;-60
2020/12/17 07:13:50;;;;;;;;;;;26.60;42.00;;;;;;5066824;28;20031;-60
2020/12/17 07:16:19;;;;;;;;;;;26.60;42.00;;;;;;5068559;28;19996;-60
2020/12/17 07:18:44;;;;;;;;;;;26.60;42.00;;;;;;5036097;28;20377;-60
2020/12/17 07:21:10;;;;;;;;;;;26.60;42.00;;;;;;5035691;28;20006;-61
2020/12/17 07:23:36;;;;;;;;;;;26.50;42.00;;;;;;5035828;28;20010;-60
2020/12/17 07:26:06;;;;;;;;;;;26.60;42.00;;;;;;5031361;28;19914;-61
2020/12/17 07:28:31;;;;;;;;;;;26.60;42.00;;;;;;5023059;28;19923;-61
2020/12/17 07:30:56;;;;;;;;;;;26.60;42.60;;;;;;5068378;28;20326;-60
2020/12/17 07:33:51;;;;;;;;;;;26.60;42.00;;;;;;5035509;28;19916;-60
2020/12/17 07:36:16;;;;;;;;;;;26.60;41.90;;;;;;5034681;28;19961;-60
2020/12/17 07:38:42;;;;;;;;;;;26.60;42.00;;;;;;5035326;28;19992;-60
2020/12/17 07:41:21;;;;;;;;;;;26.60;42.00;;;;;;5036054;28;19909;-61
2020/12/17 07:43:46;;;;;;;;;;;26.60;42.00;;;;;;5035131;28;20453;-60
2020/12/17 07:46:12;;;;;;;;;;;26.60;41.90;;;;;;5035486;28;19956;-60
2020/12/17 07:48:38;;;;;;;;;;;26.60;42.00;;;;;;5035152;28;19913;-60
2020/12/17 07:51:12;;;;;;;;;;;26.60;42.00;;;;;;5035645;28;19909;-60
2020/12/17 07:53:38;;;;;;;;;;;26.50;42.00;;;;;;5035156;28;20012;-60
2020/12/17 07:56:04;;;;;;;;;;;26.50;42.10;;;;;;5035420;28;19988;-60
2020/12/17 07:58:29;;;;;;;;;;;26.60;42.10;;;;;;5034801;28;19921;-60
2020/12/17 08:00:55;;;;;;;;;;;26.60;42.00;;;;;;5035227;28;19913;-60
2020/12/17 08:03:21;;;;;;;;;;;26.60;41.90;;;;;;5034209;28;20348;-60
2020/12/17 08:05:46;;;;;;;;;;;26.60;42.00;;;;;;5034939;28;19921;-60
2020/12/17 08:08:12;;;;;;;;;;;26.60;42.00;;;;;;5035027;28;20339;-60
2020/12/17 08:10:38;;;;;;;;;;;26.60;42.00;;;;;;5034887;28;19916;-60
2020/12/17 08:13:04;;;;;;;;;;;26.60;41.90;;;;;;5034385;28;19925;-60
2020/12/17 08:15:29;;;;;;;;;;;26.60;42.00;;;;;;5035213;28;19909;-60
2020/12/17 08:17:55;;;;;;;;;;;26.50;42.00;;;;;;5034605;28;20379;-60
2020/12/17 08:20:21;;;;;;;;;;;26.50;41.90;;;;;;5035169;28;19909;-60
2020/12/17 08:22:46;;;;;;;;;;;26.50;42.00;;;;;;5034684;28;19913;-60
2020/12/17 08:25:11;;;;;;;;;;;26.60;42.00;;;;;;5035038;28;19913;-60
2020/12/17 08:27:37;;;;;;;;;;;26.60;41.90;;;;;;5034701;28;20356;-60
2020/12/17 08:30:03;;;;;;;;;;;26.60;42.00;;;;;;5066267;28;19913;-60
2020/12/17 08:32:30;;;;;;;;;;;26.60;41.90;;;;;;5034877;28;19909;-60
2020/12/17 08:34:56;;;;;;;;;;;26.60;42.00;;;;;;5034419;28;19920;-60
2020/12/17 08:37:22;;;;;;;;;;;26.50;42.50;;;;;;5034899;28;19909;-60
2020/12/17 08:40:00;;;;;;;;;;;26.60;41.90;;;;;;5034386;28;20034;-62
2020/12/17 08:42:27;;;;;;;;;;;26.70;41.80;;;;;;5034869;28;19909;-60
2020/12/17 08:44:52;;;;;;;;;;;26.70;41.70;;;;;;5033966;28;19919;-62
2020/12/17 08:47:18;;;;;;;;;;;26.60;41.80;;;;;;5034393;28;19913;-62
2020/12/17 08:49:43;;;;;;;;;;;26.60;41.90;;;;;;5032652;28;19975;-62
2020/12/17 08:52:09;;;;;;;;;;;26.60;41.70;;;;;;5034633;28;19909;-62
2020/12/17 08:54:36;;;;;;;;;;;26.70;41.90;;;;;;5033863;28;20362;-62
2020/12/17 08:57:05;;;;;;;;;;;26.60;41.80;;;;;;5034547;28;19909;-61
2020/12/17 08:59:30;;;;;;;;;;;26.60;41.80;;;;;;5034291;28;19948;-60
2020/12/17 09:01:59;;;;;;;;;;;26.70;41.70;;;;;;5033806;28;20348;-62
2020/12/17 09:04:26;;;;;;;;;;;26.70;41.50;;;;;;5033801;28;19913;-61
2020/12/17 09:06:58;;;;;;;;;;;26.70;41.60;;;;;;5034140;28;19910;-62
2020/12/17 09:09:27;;;;;;;;;;;26.70;41.70;;;;;;5033814;28;19952;-62
2020/12/17 09:11:55;;;;;;;;;;;26.70;41.60;;;;;;5014089;28;20012;-62
2020/12/17 09:14:28;;;;;;;;;;;26.70;41.60;;;;;;5014425;28;19932;-62
2020/12/17 09:16:53;;;;;;;;;;;26.70;41.60;;;;;;5017948;28;19917;-62
2020/12/17 09:19:19;;;;;;;;;;;26.70;41.60;;;;;;5033238;28;19921;-62
2020/12/17 09:21:58;;;;;;;;;;;26.70;41.60;;;;;;5032789;28;21579;-62
2020/12/17 09:24:27;;;;;;;;;;;26.70;41.70;;;;;;5033897;28;19917;-62
2020/12/17 09:26:53;;;;;;;;;;;26.70;41.70;;;;;;5033698;28;19909;-60
2020/12/17 09:29:18;;;;;;;;;;;26.70;41.70;;;;;;5033347;28;19923;-60
2020/12/17 09:31:44;;;;;;;;;;;26.70;41.70;;;;;;5033684;28;19909;-60
2020/12/17 09:34:09;;;;;;;;;;;26.70;41.80;;;;;;5033210;28;20012;-60
2020/12/17 09:36:35;;;;;;;;;;;26.60;41.80;;;;;;5033586;28;19913;-60
2020/12/17 09:39:21;;;;;;;;;;;26.70;41.80;;;;;;5032907;28;19931;-60
2020/12/17 09:41:56;;;;;;;;;;;26.70;41.80;;;;;;5033401;28;20359;-62
2020/12/17 09:44:25;;;;;;;;;;;26.70;41.70;;;;;;5033307;28;19909;-60
2020/12/17 09:46:50;;;;;;;;;;;26.70;41.70;;;;;;5033297;28;19917;-60
2020/12/17 09:49:42;;;;;;;;;;;26.60;41.80;;;;;;5032938;28;20356;-60
2020/12/17 09:52:09;;;;;;;;;;;26.70;41.70;;;;;;5032946;28;20367;-60
2020/12/17 09:54:37;;;;;;;;;;;26.60;41.70;;;;;;5032969;28;19917;-60
2020/12/17 09:57:03;;;;;;;;;;;26.60;41.80;;;;;;5032982;28;19970;-60
2020/12/17 09:59:29;;;;;;;;;;;26.60;41.80;;;;;;5032984;28;19960;-60
2020/12/17 10:01:58;;;;;;;;;;;26.60;41.70;;;;;;5032888;28;19948;-60
2020/12/17 10:04:23;;;;;;;;;;;26.70;41.70;;;;;;5032726;28;20338;-60
2020/12/17 10:06:49;;;;;;;;;;;26.70;41.60;;;;;;5033085;28;20407;-60
2020/12/17 10:09:14;;;;;;;;;;;26.70;41.60;;;;;;5032914;28;20332;-60
2020/12/17 10:11:49;;;;;;;;;;;26.70;41.60;;;;;;5032951;28;19925;-60
2020/12/17 10:14:15;;;;;;;;;;;26.70;41.60;;;;;;5032476;28;20316;-60
2020/12/17 10:16:40;;;;;;;;;;;26.70;41.60;;;;;;5032912;28;19940;-61
2020/12/17 10:19:07;;;;;;;;;;;26.70;41.70;;;;;;5032339;28;20297;-60
2020/12/17 10:21:32;;;;;;;;;;;26.70;41.60;;;;;;5033029;28;19960;-61
2020/12/17 10:23:57;;;;;;;;;;;26.70;41.60;;;;;;5032765;28;20371;-60
2020/12/17 10:26:23;;;;;;;;;;;26.70;41.60;;;;;;5024334;28;19910;-60
2020/12/17 10:28:48;;;;;;;;;;;26.80;41.60;;;;;;5022370;28;19920;-60
2020/12/17 10:31:14;;;;;;;;;;;26.80;41.50;;;;;;5032343;28;20286;-60
2020/12/17 10:33:39;;;;;;;;;;;26.80;41.50;;;;;;5032548;28;19967;-60
2020/12/17 10:36:05;;;;;;;;;;;26.80;41.50;;;;;;5032620;28;19916;-60
2020/12/17 10:38:30;;;;;;;;;;;26.70;41.60;;;;;;5031922;28;19940;-60
2020/12/17 10:40:56;;;;;;;;;;;26.70;41.70;;;;;;5032511;28;19909;-60
2020/12/17 10:43:21;;;;;;;;;;;26.80;41.50;;;;;;5032407;28;19913;-60
2020/12/17 10:45:47;;;;;;;;;;;26.70;41.60;;;;;;5032459;28;19916;-60
2020/12/17 10:48:12;;;;;;;;;;;26.80;41.60;;;;;;5031859;28;20028;-60
2020/12/17 10:50:38;;;;;;;;;;;26.80;41.50;;;;;;5032450;28;19931;-60
2020/12/17 10:53:03;;;;;;;;;;;26.80;41.50;;;;;;5032879;28;19976;-61
2020/12/17 10:55:29;;;;;;;;;;;26.80;41.50;;;;;;5032468;28;19955;-60
2020/12/17 10:57:54;;;;;;;;;;;26.80;41.60;;;;;;5031990;28;19927;-60
2020/12/17 11:00:20;;;;;;;;;;;26.80;41.50;;;;;;5031856;28;19995;-60
2020/12/17 11:02:45;;;;;;;;;;;26.80;41.50;;;;;;5031835;28;19924;-60
2020/12/17 11:05:11;;;;;;;;;;;26.80;41.60;;;;;;5032182;28;19924;-60
2020/12/17 11:07:36;;;;;;;;;;;26.80;41.50;;;;;;5032365;28;19975;-60
2020/12/17 11:10:02;;;;;;;;;;;26.80;41.50;;;;;;5032089;28;19939;-60
2020/12/17 11:12:27;;;;;;;;;;;26.90;41.50;;;;;;5031898;28;19921;-60
2020/12/17 11:14:53;;;;;;;;;;;26.90;41.40;;;;;;5032331;28;20004;-60
2020/12/17 11:17:18;;;;;;;;;;;26.90;42.00;;;;;;5031927;28;19913;-60
2020/12/17 11:19:44;;;;;;;;;;;26.90;41.40;;;;;;5032272;28;19917;-60
2020/12/17 11:22:09;;;;;;;;;;;26.90;41.40;;;;;;5031507;28;19909;-60
2020/12/17 11:24:35;;;;;;;;;;;26.90;41.40;;;;;;5032260;28;20837;-61
2020/12/17 11:27:00;;;;;;;;;;;26.90;41.40;;;;;;5032088;28;20028;-60
2020/12/17 11:29:26;;;;;;;;;;;26.90;41.50;;;;;;5032206;28;19987;-60
2020/12/17 11:31:51;;;;;;;;;;;26.90;41.40;;;;;;5032032;28;20330;-61
2020/12/17 11:34:17;;;;;;;;;;;26.90;41.40;;;;;;5026414;28;19913;-61
2020/12/17 11:36:42;;;;;;;;;;;26.90;41.50;;;;;;5032163;28;19951;-60
2020/12/17 11:39:08;;;;;;;;;;;26.90;41.30;;;;;;5034300;28;19975;-60
2020/12/17 11:41:33;;;;;;;;;;;26.90;41.30;;;;;;5035986;28;19909;-60
2020/12/17 11:43:59;;;;;;;;;;;26.90;41.40;;;;;;5035448;28;19913;-60
2020/12/17 11:46:24;;;;;;;;;;;27.00;41.40;;;;;;5035423;28;20256;-61
2020/12/17 11:48:50;;;;;;;;;;;27.00;41.30;;;;;;5035677;28;20020;-60
2020/12/17 11:51:15;;;;;;;;;;;27.00;41.30;;;;;;5035783;28;19913;-60
2020/12/17 11:53:41;;;;;;;;;;;27.00;41.40;;;;;;5035093;28;19916;-60
2020/12/17 11:56:09;;;;;;;;;;;27.00;41.30;;;;;;5035148;28;19923;-60
2020/12/17 11:58:35;;;;;;;;;;;27.00;41.40;;;;;;5035016;28;20028;-60
2020/12/17 12:01:00;;;;;;;;;;;27.00;41.30;;;;;;5035143;28;20019;-60
2020/12/17 12:03:26;;;;;;;;;;;27.00;41.30;;;;;;5035045;28;19924;-60
2020/12/17 12:05:51;;;;;;;;;;;27.00;41.30;;;;;;5034803;28;20404;-61
2020/12/17 12:08:17;;;;;;;;;;;27.00;41.30;;;;;;5034806;28;19913;-60
2020/12/17 12:10:42;;;;;;;;;;;27.10;41.30;;;;;;5034884;28;19920;-61
2020/12/17 12:13:08;;;;;;;;;;;27.00;41.20;;;;;;5034778;28;19952;-60
2020/12/17 12:15:33;;;;;;;;;;;27.00;41.20;;;;;;5035122;28;20000;-60
2020/12/17 12:17:58;;;;;;;;;;;27.00;41.30;;;;;;5034788;28;19928;-60
2020/12/17 12:20:24;;;;;;;;;;;27.00;41.30;;;;;;5035368;28;19930;-61
2020/12/17 12:22:49;;;;;;;;;;;27.00;41.30;;;;;;5034669;28;19909;-60
2020/12/17 12:25:15;;;;;;;;;;;27.00;41.30;;;;;;5034672;28;19939;-60
2020/12/17 12:27:40;;;;;;;;;;;27.00;41.30;;;;;;5035027;28;20387;-60
2020/12/17 12:30:06;;;;;;;;;;;27.00;41.40;;;;;;5034995;28;19913;-60
2020/12/17 12:32:31;;;;;;;;;;;26.90;41.40;;;;;;5034605;28;21805;-60
2020/12/17 12:34:57;;;;;;;;;;;26.90;41.40;;;;;;5034074;28;20352;-60
2020/12/17 12:37:22;;;;;;;;;;;27.00;41.40;;;;;;5034443;28;19916;-60
2020/12/17 12:39:48;;;;;;;;;;;27.00;41.30;;;;;;5034642;28;19913;-60
2020/12/17 12:42:13;;;;;;;;;;;27.00;41.30;;;;;;5034519;28;19913;-60
2020/12/17 12:44:39;;;;;;;;;;;26.90;41.40;;;;;;5034409;28;19913;-60
2020/12/17 12:47:04;;;;;;;;;;;26.90;41.40;;;;;;5034426;28;19916;-61
2020/12/17 12:49:29;;;;;;;;;;;26.90;41.40;;;;;;5033722;28;19921;-60
2020/12/17 12:51:55;;;;;;;;;;;27.00;41.50;;;;;;5034139;28;20011;-60
2020/12/17 12:54:20;;;;;;;;;;;27.00;41.40;;;;;;5034393;28;20279;-62
2020/12/17 12:56:46;;;;;;;;;;;26.90;41.40;;;;;;5034597;28;19913;-60
2020/12/17 12:59:11;;;;;;;;;;;26.90;41.40;;;;;;5033889;28;20363;-60
2020/12/17 13:01:37;;;;;;;;;;;26.90;41.40;;;;;;5034208;28;19913;-61
2020/12/17 13:04:02;;;;;;;;;;;27.00;41.40;;;;;;5033473;28;20472;-62
2020/12/17 13:06:28;;;;;;;;;;;27.00;41.40;;;;;;5034033;28;19943;-62
2020/12/17 13:08:53;;;;;;;;;;;27.00;41.40;;;;;;5034301;28;20339;-61
2020/12/17 13:11:19;;;;;;;;;;;27.00;41.40;;;;;;5034056;28;20359;-62
2020/12/17 13:13:45;;;;;;;;;;;27.10;41.30;;;;;;5033749;28;20374;-62
2020/12/17 13:16:11;;;;;;;;;;;27.10;41.30;;;;;;5034028;28;19920;-62
2020/12/17 13:18:37;;;;;;;;;;;27.10;41.40;;;;;;5033567;28;19921;-62
2020/12/17 13:21:02;;;;;;;;;;;27.10;41.40;;;;;;5033518;28;19959;-62
2020/12/17 13:23:28;;;;;;;;;;;27.00;41.30;;;;;;5033827;28;19913;-62
2020/12/17 13:25:54;;;;;;;;;;;27.00;41.40;;;;;;5029597;28;19917;-62
2020/12/17 13:28:19;;;;;;;;;;;27.00;41.40;;;;;;5014306;28;19909;-61
2020/12/17 13:30:46;;;;;;;;;;;27.00;41.30;;;;;;5014170;28;20411;-61
2020/12/17 13:33:11;;;;;;;;;;;27.00;41.40;;;;;;5020363;28;19913;-62
2020/12/17 13:35:37;;;;;;;;;;;27.00;41.40;;;;;;5028153;28;20008;-61
2020/12/17 13:38:02;;;;;;;;;;;27.10;41.30;;;;;;5033684;28;19976;-62
2020/12/17 13:40:28;;;;;;;;;;;27.10;41.40;;;;;;5033544;28;20325;-62
2020/12/17 13:42:53;;;;;;;;;;;27.10;41.40;;;;;;5033101;28;20383;-62
2020/12/17 13:45:19;;;;;;;;;;;27.10;41.90;;;;;;5033492;28;19909;-62
2020/12/17 13:47:44;;;;;;;;;;;27.10;41.30;;;;;;5033100;28;19917;-62
2020/12/17 13:50:11;;;;;;;;;;;27.10;41.30;;;;;;5033211;28;19909;-62
2020/12/17 13:52:37;;;;;;;;;;;27.10;41.30;;;;;;5033488;28;19910;-62
2020/12/17 13:55:02;;;;;;;;;;;27.10;41.40;;;;;;5033303;28;19913;-62
2020/12/17 13:57:28;;;;;;;;;;;27.00;41.40;;;;;;5033159;28;19913;-62
2020/12/17 13:59:53;;;;;;;;;;;27.00;41.40;;;;;;5033195;28;19923;-62
2020/12/17 14:02:18;;;;;;;;;;;27.00;41.50;;;;;;5032248;28;19971;-62
2020/12/17 14:04:44;;;;;;;;;;;27.00;41.60;;;;;;5032433;28;19936;-62
2020/12/17 14:07:09;;;;;;;;;;;27.00;41.50;;;;;;5033244;28;19910;-62
2020/12/17 14:09:35;;;;;;;;;;;27.00;41.60;;;;;;5032834;28;19909;-62
2020/12/17 14:12:00;;;;;;;;;;;27.00;41.50;;;;;;5032847;28;20119;-62